Time;durP1;ratioP1;P1;durP2;ratioP2;P2;SDS_P1;SDS_P2;PMS_P1;PMS_P2;Temp;Humidity;BMP_temperature;BMP_pressure;BME280_temperature;BME280_humidity;BME280_pressure;Samples;Min_cycle;Max_cycle;Signal;HPM_P1;HPM_P2
2022/08/10 00:02:26;;;;;;;7.20;3.30;;;;;;;19.87;48.26;99911.14;237579;1195;140079;-57
2022/08/10 00:07:29;;;;;;;8.80;3.40;;;;;;;19.80;48.39;99910.94;237392;1195;139491;-58
2022/08/10 00:12:32;;;;;;;8.10;3.10;;;;;;;19.79;48.59;99911.42;237347;1195;139237;-57
2022/08/10 00:17:54;;;;;;;4.80;3.10;;;;;;;19.74;48.51;99912.22;237337;1195;140621;-57
2022/08/10 00:22:58;;;;;;;7.90;3.30;;;;;;;19.70;48.57;99907.17;237318;1196;139967;-59
2022/08/10 00:28:01;;;;;;;6.10;3.10;;;;;;;19.61;48.71;99907.59;237469;1195;139089;-59
2022/08/10 00:33:05;;;;;;;5.60;3.60;;;;;;;19.45;48.75;99909.79;237460;1196;139552;-55
2022/08/10 00:38:09;;;;;;;4.90;3.00;;;;;;;19.30;49.00;99911.05;237232;1196;139743;-59
2022/08/10 00:43:12;;;;;;;6.40;2.80;;;;;;;19.18;49.20;99912.45;237363;1195;139581;-58
2022/08/10 00:48:15;;;;;;;10.90;3.10;;;;;;;19.09;49.50;99912.31;237476;1196;138961;-58
2022/08/10 00:53:18;;;;;;;7.20;2.70;;;;;;;19.01;49.77;99921.81;237489;1195;139463;-58
2022/08/10 00:58:21;;;;;;;6.30;3.00;;;;;;;18.92;49.90;99916.41;237479;1195;138989;-59
2022/08/10 01:03:24;;;;;;;9.00;3.00;;;;;;;18.84;50.16;99919.17;237373;1195;138807;-59
2022/08/10 01:09:05;;;;;;;7.60;3.10;;;;;;;18.77;50.25;99918.89;237326;1195;138414;-59
2022/08/10 01:14:40;;;;;;;6.40;3.40;;;;;;;18.71;50.61;99915.29;237267;1195;139480;-59
2022/08/10 01:20:10;;;;;;;6.70;3.10;;;;;;;18.61;50.73;99914.92;237266;1195;139456;-59
2022/08/10 01:25:51;;;;;;;7.50;3.00;;;;;;;18.54;50.94;99908.13;237452;1195;139343;-59
2022/08/10 01:31:20;;;;;;;4.70;2.70;;;;;;;18.52;51.02;99913.17;237441;1194;139964;-57
2022/08/10 01:36:54;;;;;;;5.30;3.00;;;;;;;18.47;51.18;99909.30;237359;1195;139804;-60
2022/08/10 01:42:01;;;;;;;6.30;3.10;;;;;;;18.39;51.58;99913.48;237329;1195;139892;-61
2022/08/10 01:52:33;;;;;;;7.10;3.00;;;;;;;18.33;51.81;99913.67;237453;1195;139409;-59
2022/08/10 01:57:40;;;;;;;7.00;3.20;;;;;;;18.29;51.93;99913.45;237307;1195;139718;-60
2022/08/10 02:02:44;;;;;;;5.70;2.90;;;;;;;18.25;52.08;99914.65;237323;1195;139626;-60
2022/08/10 02:07:49;;;;;;;5.80;3.20;;;;;;;18.19;52.21;99920.16;237451;1195;139619;-61
2022/08/10 02:12:55;;;;;;;8.10;3.30;;;;;;;18.11;52.34;99923.44;237396;1194;140120;-60
2022/08/10 02:18:01;;;;;;;11.10;3.60;;;;;;;18.05;52.52;99928.45;237294;1195;139244;-63
2022/08/10 02:23:13;;;;;;;6.70;3.40;;;;;;;17.98;52.79;99926.11;237346;1195;139373;-60
2022/08/10 02:28:21;;;;;;;7.30;3.00;;;;;;;17.93;52.92;99923.96;237407;1195;139950;-59
2022/08/10 02:33:35;;;;;;;10.20;3.40;;;;;;;17.88;53.32;99922.59;237334;1195;139089;-60
2022/08/10 02:38:44;;;;;;;10.60;3.90;;;;;;;17.83;53.26;99926.56;237259;1195;139392;-59
2022/08/10 02:44:07;;;;;;;9.00;3.40;;;;;;;17.79;53.46;99927.95;237084;1196;140238;-60
2022/08/10 02:49:36;;;;;;;7.30;3.70;;;;;;;17.76;53.49;99931.78;237309;1195;138755;-60
2022/08/10 02:54:49;;;;;;;10.60;3.60;;;;;;;17.71;53.65;99938.38;237424;1195;141962;-62
2022/08/10 02:59:59;;;;;;;9.60;3.50;;;;;;;17.66;53.93;99941.84;237273;1196;140004;-59
2022/08/10 03:05:08;;;;;;;8.30;3.50;;;;;;;17.62;53.99;99943.23;236942;1196;139083;-58
2022/08/10 03:10:18;;;;;;;6.90;3.10;;;;;;;17.58;53.98;99948.39;237368;1195;139620;-59
2022/08/10 03:15:22;;;;;;;10.90;3.90;;;;;;;17.56;53.88;99950.01;237357;1195;139458;-59
2022/08/10 03:20:29;;;;;;;9.70;3.40;;;;;;;17.55;54.09;99952.55;237274;1195;139943;-60
2022/08/10 03:25:43;;;;;;;10.50;3.90;;;;;;;17.52;54.27;99952.23;237337;1196;139660;-59
2022/08/10 03:30:58;;;;;;;6.20;3.70;;;;;;;17.49;54.19;99954.83;237302;1196;139276;-59
2022/08/10 03:36:03;;;;;;;8.60;3.50;;;;;;;17.45;54.37;99959.46;237322;1195;139838;-60
2022/08/10 03:41:35;;;;;;;4.10;3.00;;;;;;;17.41;54.61;99968.86;237529;1195;139591;-60
2022/08/10 03:46:41;;;;;;;8.10;3.70;;;;;;;17.40;54.79;99970.92;237324;1195;139085;-60
2022/08/10 03:51:48;;;;;;;8.00;3.40;;;;;;;17.39;54.97;99973.00;237236;1196;139287;-60
2022/08/10 03:56:51;;;;;;;9.90;3.70;;;;;;;17.37;54.84;99975.33;237485;1195;139842;-60
2022/08/10 04:01:55;;;;;;;10.40;3.70;;;;;;;17.35;55.21;99977.76;237383;1195;139797;-60
2022/08/10 04:07:20;;;;;;;73.50;45.80;;;;;;;17.37;55.37;99983.93;237118;1196;139516;-59
2022/08/10 04:12:23;;;;;;;11.90;5.20;;;;;;;17.46;55.55;99986.05;237266;1195;142259;-61
2022/08/10 04:17:26;;;;;;;32.60;23.70;;;;;;;17.58;55.65;99985.31;237256;1196;139642;-58
2022/08/10 04:22:52;;;;;;;14.00;6.90;;;;;;;17.72;55.46;99989.68;237305;1195;140435;-60
2022/08/10 04:27:55;;;;;;;7.50;4.20;;;;;;;17.86;55.44;99996.49;237389;1195;139100;-60
2022/08/10 04:33:01;;;;;;;43.30;28.40;;;;;;;18.00;55.49;99995.13;237516;1194;139195;-60
2022/08/10 04:38:05;;;;;;;8.80;4.30;;;;;;;18.12;55.49;99988.98;237188;1195;139537;-59
2022/08/10 04:43:08;;;;;;;11.80;6.80;;;;;;;18.41;55.95;99987.17;237115;1195;141007;-59
2022/08/10 04:48:15;;;;;;;7.50;3.90;;;;;;;18.91;55.88;99985.88;237178;1195;140521;-58
2022/08/10 04:53:38;;;;;;;22.70;15.50;;;;;;;19.13;54.96;99990.74;237580;1195;138847;-62
2022/08/10 04:59:01;;;;;;;9.60;4.90;;;;;;;19.25;54.77;99992.97;237335;1195;139329;-59
2022/08/10 05:04:04;;;;;;;94.50;67.10;;;;;;;19.33;54.40;99993.39;237187;1196;139909;-58
2022/08/10 05:09:28;;;;;;;11.10;6.40;;;;;;;19.35;54.18;99997.95;237154;1195;139565;-58
2022/08/10 05:14:30;;;;;;;10.10;6.70;;;;;;;19.45;54.29;100002.70;237425;1195;140642;-60
2022/08/10 05:19:33;;;;;;;10.70;5.00;;;;;;;19.72;54.51;100000.27;237186;1195;140738;-62
2022/08/10 05:24:56;;;;;;;9.70;5.40;;;;;;;19.84;53.95;99995.45;237059;1196;139378;-61
2022/08/10 05:29:59;;;;;;;14.90;6.70;;;;;;;19.88;53.75;99996.89;237097;1196;139916;-60
2022/08/10 05:35:06;;;;;;;8.10;6.00;;;;;;;20.16;54.03;99991.44;237224;1195;139351;-60
2022/08/10 05:40:10;;;;;;;8.50;5.70;;;;;;;20.45;53.92;99990.05;237442;1195;139178;-61
2022/08/10 05:45:20;;;;;;;11.10;5.20;;;;;;;20.75;53.58;99987.31;237741;1195;139764;-60
2022/08/10 05:50:27;;;;;;;10.80;5.00;;;;;;;20.91;52.95;99983.41;237296;1195;140295;-60
2022/08/10 05:55:30;;;;;;;8.10;4.70;;;;;;;21.01;52.88;99991.48;237392;1195;140809;-59
2022/08/10 06:00:37;;;;;;;6.80;4.30;;;;;;;21.06;52.56;99993.75;237414;1195;139783;-58
2022/08/10 06:05:54;;;;;;;9.90;4.30;;;;;;;21.31;52.63;99986.06;237601;1195;140303;-58
2022/08/10 06:11:02;;;;;;;7.10;4.00;;;;;;;21.45;52.15;99990.45;236897;1196;141089;-59
2022/08/10 06:16:26;;;;;;;6.10;4.20;;;;;;;21.49;51.82;99994.86;237235;1196;139488;-60
2022/08/10 06:21:30;;;;;;;17.30;9.20;;;;;;;21.51;51.77;99995.66;237631;1195;140632;-57
2022/08/10 06:26:33;;;;;;;22.10;9.30;;;;;;;21.63;51.98;99995.77;237726;1195;139694;-59
2022/08/10 06:31:43;;;;;;;13.50;4.60;;;;;;;21.55;51.35;99997.42;237339;1196;139519;-58
2022/08/10 06:36:56;;;;;;;13.50;4.90;;;;;;;21.40;51.27;99997.52;237267;1196;141774;-59
2022/08/10 06:42:11;;;;;;;12.60;5.20;;;;;;;21.34;51.59;99996.88;237190;1195;139800;-57
2022/08/10 06:47:24;;;;;;;8.90;5.50;;;;;;;21.32;51.68;99997.41;237549;1195;140883;-58
2022/08/10 06:52:29;;;;;;;22.80;15.10;;;;;;;21.36;52.00;99995.35;237300;1195;141176;-58
2022/08/10 06:57:36;;;;;;;17.30;11.90;;;;;;;21.56;52.10;99997.32;237107;1195;140647;-59
2022/08/10 07:02:50;;;;;;;17.10;8.50;;;;;;;21.72;51.80;99993.86;237152;1195;140230;-59
2022/08/10 07:07:59;;;;;;;11.60;5.40;;;;;;;21.83;51.68;99993.00;237168;1195;139197;-59
2022/08/10 07:13:05;;;;;;;9.60;4.00;;;;;;;21.93;51.51;99991.30;237356;1195;162644;-57
2022/08/10 07:18:09;;;;;;;6.20;3.40;;;;;;;22.02;51.40;99991.95;237336;1195;139276;-58
2022/08/10 07:23:15;;;;;;;7.90;4.10;;;;;;;22.07;51.15;99991.83;237188;1195;140136;-58
2022/08/10 07:28:38;;;;;;;10.00;3.60;;;;;;;22.16;51.35;99987.39;237208;1195;139119;-58
2022/08/10 07:33:48;;;;;;;13.80;8.50;;;;;;;22.27;51.27;99982.23;237498;1195;140172;-58
2022/08/10 07:38:53;;;;;;;13.70;6.80;;;;;;;22.39;51.19;99980.70;237290;1195;139595;-59
2022/08/10 07:44:03;;;;;;;17.00;8.30;;;;;;;22.50;50.85;99977.52;237208;1195;139412;-57
2022/08/10 07:49:11;;;;;;;14.20;7.30;;;;;;;22.59;50.88;99977.84;236990;1196;140249;-57
2022/08/10 07:54:26;;;;;;;17.90;7.60;;;;;;;22.68;50.78;99982.03;237369;1195;141748;-58
2022/08/10 07:59:43;;;;;;;25.70;11.00;;;;;;;22.75;51.13;99981.91;237315;1196;139279;-56
2022/08/10 08:04:47;;;;;;;19.80;10.60;;;;;;;22.83;51.40;99976.58;237206;1195;139870;-57
2022/08/10 08:09:51;;;;;;;16.30;8.00;;;;;;;22.89;51.03;99979.58;237418;1195;139576;-58
2022/08/10 08:15:04;;;;;;;8.50;4.10;;;;;;;22.96;50.71;99977.48;237334;1195;139265;-57
2022/08/10 08:20:29;;;;;;;9.20;6.30;;;;;;;23.03;50.09;99977.13;237237;1195;138702;-58
2022/08/10 08:25:32;;;;;;;8.50;5.10;;;;;;;23.09;49.60;99970.58;237030;1196;139568;-56
2022/08/10 08:30:38;;;;;;;6.10;2.50;;;;;;;23.15;49.12;99964.05;237239;1195;139743;-58
2022/08/10 08:35:42;;;;;;;4.00;2.20;;;;;;;23.19;48.62;99959.08;237254;1195;139767;-58
2022/08/10 08:40:56;;;;;;;2.60;2.20;;;;;;;23.22;48.07;99955.67;237293;1195;139549;-59
2022/08/10 08:46:37;;;;;;;3.70;2.30;;;;;;;23.24;47.50;99950.13;237356;1195;140510;-59
2022/08/10 08:51:56;;;;;;;8.60;3.20;;;;;;;23.31;47.62;99951.17;237341;1195;140059;-59
2022/08/10 08:57:35;;;;;;;8.90;4.00;;;;;;;23.44;47.99;99949.52;237025;1196;139244;-59
2022/08/10 09:03:30;;;;;;;11.40;3.80;;;;;;;23.56;47.92;99944.46;237139;1196;140808;-59
2022/08/10 09:08:57;;;;;;;11.10;6.40;;;;;;;23.65;47.52;99942.50;237222;1196;139571;-59
2022/08/10 09:14:12;;;;;;;16.10;4.20;;;;;;;23.76;47.31;99933.92;237180;1195;140488;-58
2022/08/10 09:19:21;;;;;;;7.10;2.10;;;;;;;23.87;46.97;99937.19;237108;1196;139796;-57
2022/08/10 09:24:57;;;;;;;11.30;2.60;;;;;;;23.94;46.31;99941.83;237347;1195;139355;-58
2022/08/10 09:30:06;;;;;;;6.30;2.40;;;;;;;24.06;46.26;99935.32;237342;1195;139570;-58
2022/08/10 09:35:22;;;;;;;3.70;2.10;;;;;;;24.17;45.94;99934.09;237156;1195;139852;-57
2022/08/10 09:40:48;;;;;;;;;;;;;;;24.15;45.37;99930.31;237315;1195;139992;-56
2022/08/10 09:46:26;;;;;;;8.20;2.00;;;;;;;24.08;45.08;99928.44;237076;1196;127299;-57
2022/08/10 09:51:42;;;;;;;9.70;2.60;;;;;;;23.99;44.62;99924.02;236876;1196;138885;-59
2022/08/10 09:57:02;;;;;;;19.20;4.10;;;;;;;23.98;44.46;99912.27;237172;1195;138522;-59
2022/08/10 10:02:41;;;;;;;8.70;2.70;;;;;;;24.18;44.51;99907.45;237141;1196;139336;-58
2022/08/10 10:07:56;;;;;;;6.80;2.20;;;;;;;24.40;44.04;99905.37;237141;1195;138750;-59
2022/08/10 10:13:10;;;;;;;19.40;3.10;;;;;;;24.53;43.86;99896.36;237264;1195;139290;-58
2022/08/10 10:18:21;;;;;;;21.10;4.60;;;;;;;24.60;43.54;99894.89;237079;1196;138909;-59
2022/08/10 10:23:51;;;;;;;665.30;146.10;;;;;;;24.53;43.33;99894.14;237157;1195;139932;-59
2022/08/10 10:29:32;;;;;;;83.80;18.70;;;;;;;24.67;43.80;99890.49;237251;1196;140929;-59
2022/08/10 10:35:02;;;;;;;63.70;12.40;;;;;;;24.95;43.34;99890.16;237224;1195;140419;-59
2022/08/10 10:40:07;;;;;;;52.30;6.40;;;;;;;24.88;42.88;99886.39;237026;1195;142525;-59
2022/08/10 10:45:47;;;;;;;6.40;2.40;;;;;;;25.09;42.99;99882.44;237174;1194;140841;-59
2022/08/10 10:51:11;;;;;;;10.90;2.80;;;;;;;25.41;42.75;99876.03;237503;1195;138984;-59
2022/08/10 10:56:35;;;;;;;7.70;2.20;;;;;;;25.24;41.83;99880.48;237016;1196;139332;-59
2022/08/10 11:01:56;;;;;;;6.80;2.10;;;;;;;25.42;42.06;99873.77;237178;1195;139660;-57
2022/08/10 11:07:23;;;;;;;7.10;1.80;;;;;;;25.75;41.77;99865.34;237098;1195;139055;-59
2022/08/10 11:12:48;;;;;;;4.90;1.70;;;;;;;26.02;41.41;99863.96;237239;1196;139676;-58
2022/08/10 11:18:20;;;;;;;5.40;1.60;;;;;;;26.31;41.47;99855.71;237235;1195;139571;-56
2022/08/10 11:23:45;;;;;;;3.80;1.70;;;;;;;26.51;40.93;99848.02;237081;1195;139593;-58
2022/08/10 11:29:21;;;;;;;6.20;1.90;;;;;;;26.34;40.28;99849.23;237235;1196;139749;-58
2022/08/10 11:34:34;;;;;;;8.30;1.90;;;;;;;26.08;40.14;99852.92;237154;1196;139382;-58
2022/08/10 11:40:11;;;;;;;3.60;1.40;;;;;;;25.75;40.00;99850.60;237434;1195;139292;-58
2022/08/10 11:45:20;;;;;;;4.40;1.30;;;;;;;25.73;40.12;99850.64;237194;1196;139233;-58
2022/08/10 11:50:30;;;;;;;2.10;1.60;;;;;;;26.14;40.62;99843.67;237291;1196;139435;-58
2022/08/10 11:55:33;;;;;;;6.80;2.20;;;;;;;26.25;40.03;99845.38;237294;1195;139893;-58
2022/08/10 12:00:38;;;;;;;2.20;1.60;;;;;;;26.13;39.58;99847.39;237355;1194;139242;-58
2022/08/10 12:05:42;;;;;;;;;;;;;;;25.93;39.59;99841.73;237162;1196;139261;-59
2022/08/10 12:10:57;;;;;;;2.30;1.30;;;;;;;26.05;40.03;99835.79;237152;1195;126403;-58
2022/08/10 12:16:17;;;;;;;2.50;1.50;;;;;;;26.53;40.30;99830.86;237293;1195;139503;-58
2022/08/10 12:21:25;;;;;;;3.50;1.80;;;;;;;26.91;40.00;99826.41;237318;1196;139060;-57
2022/08/10 12:26:36;;;;;;;18.90;13.90;;;;;;;26.74;39.07;99828.34;237127;1196;139327;-58
2022/08/10 12:31:47;;;;;;;5.10;1.70;;;;;;;26.62;39.28;99821.34;237208;1195;139902;-58
2022/08/10 12:37:12;;;;;;;2.60;1.60;;;;;;;26.98;39.25;99806.17;237266;1196;139654;-59
2022/08/10 12:42:21;;;;;;;3.00;1.50;;;;;;;27.39;38.71;99800.80;237372;1195;140041;-58
2022/08/10 12:48:13;;;;;;;79.50;60.90;;;;;;;27.79;38.24;99796.83;237195;1195;139378;-59
2022/08/10 12:53:32;;;;;;;4.70;2.10;;;;;;;27.85;37.57;99793.94;237103;1196;140378;-59
2022/08/10 12:58:40;;;;;;;5.30;1.60;;;;;;;27.48;37.20;99786.92;237297;1195;139318;-58
2022/08/10 13:04:15;;;;;;;4.80;2.00;;;;;;;27.11;37.18;99782.25;237224;1195;139821;-59
2022/08/10 13:09:27;;;;;;;5.20;1.60;;;;;;;27.15;37.78;99773.48;237194;1196;139385;-59
2022/08/10 13:14:35;;;;;;;4.30;1.10;;;;;;;27.61;37.79;99769.33;237243;1195;139886;-59
2022/08/10 13:19:43;;;;;;;5.10;1.30;;;;;;;28.02;36.99;99767.40;237208;1196;140502;-59
2022/08/10 13:25:04;;;;;;;3.30;1.20;;;;;;;28.29;36.37;99761.48;237307;1195;139436;-60
2022/08/10 13:30:07;;;;;;;8.10;1.60;;;;;;;28.15;36.22;99759.05;237349;1195;139307;-59
2022/08/10 13:35:16;;;;;;;2.70;1.40;;;;;;;27.80;35.72;99759.71;237313;1195;140084;-59
2022/08/10 13:40:20;;;;;;;2.90;1.60;;;;;;;27.57;36.17;99755.61;237265;1195;139615;-59
2022/08/10 13:45:26;;;;;;;7.20;1.70;;;;;;;27.97;36.72;99746.91;237166;1196;140297;-59
2022/08/10 13:50:29;;;;;;;4.30;1.50;;;;;;;28.47;36.41;99744.98;237233;1195;139564;-58
2022/08/10 13:55:49;;;;;;;8.80;1.80;;;;;;;28.52;35.60;99743.06;237314;1195;139209;-58
2022/08/10 14:00:59;;;;;;;4.70;1.30;;;;;;;28.17;35.48;99743.34;237093;1195;139388;-59
2022/08/10 14:06:05;;;;;;;5.40;1.50;;;;;;;27.83;35.43;99742.41;237016;1196;139904;-59
2022/08/10 14:11:16;;;;;;;2.10;1.50;;;;;;;27.38;35.62;99736.58;237100;1195;140080;-57
2022/08/10 14:16:20;;;;;;;27.80;21.10;;;;;;;27.30;36.04;99728.27;237285;1194;139276;-59
2022/08/10 14:21:23;;;;;;;12.60;4.10;;;;;;;27.69;36.18;99719.25;237309;1195;139766;-59
2022/08/10 14:26:30;;;;;;;14.10;3.20;;;;;;;28.07;36.10;99713.23;237245;1196;140261;-59
2022/08/10 14:31:39;;;;;;;2.80;1.60;;;;;;;28.32;35.74;99714.39;237140;1196;139389;-59
2022/08/10 14:37:07;;;;;;;14.10;10.50;;;;;;;28.49;35.46;99712.86;237009;1195;139749;-58
2022/08/10 14:42:32;;;;;;;4.80;2.10;;;;;;;28.58;35.24;99710.59;237404;1195;139882;-58
2022/08/10 14:47:39;;;;;;;3.60;1.50;;;;;;;28.44;34.96;99713.27;237227;1195;139257;-59
2022/08/10 14:52:58;;;;;;;4.20;1.40;;;;;;;28.33;34.74;99710.47;236846;1196;140068;-57
2022/08/10 14:58:02;;;;;;;3.20;1.30;;;;;;;28.03;34.21;99706.78;236841;1196;140758;-60
2022/08/10 15:03:27;;;;;;;2.50;1.20;;;;;;;27.74;34.22;99706.27;236930;1196;139258;-58
2022/08/10 15:08:51;;;;;;;3.90;1.40;;;;;;;27.50;34.23;99701.55;236893;1196;140099;-59
2022/08/10 15:13:54;;;;;;;5.50;1.40;;;;;;;27.28;34.27;99701.38;237359;1195;140041;-57
2022/08/10 15:19:20;;;;;;;4.50;1.20;;;;;;;26.94;34.39;99693.03;237255;1195;140035;-58
2022/08/10 15:24:59;;;;;;;8.60;1.60;;;;;;;26.63;34.66;99699.48;236932;1196;139745;-59
2022/08/10 15:30:04;;;;;;;3.40;1.50;;;;;;;26.44;34.97;99699.30;237135;1195;140758;-59
2022/08/10 15:40:38;;;;;;;3.50;1.30;;;;;;;26.28;34.77;99695.46;237229;1195;139352;-59
2022/08/10 15:45:57;;;;;;;4.00;1.30;;;;;;;26.25;34.67;99692.69;237231;1196;139020;-58
2022/08/10 15:51:04;;;;;;;5.20;1.50;;;;;;;26.23;34.63;99690.80;237112;1195;139054;-60
2022/08/10 15:56:13;;;;;;;2.10;1.10;;;;;;;26.23;34.55;99690.25;237291;1195;139888;-59
2022/08/10 16:01:23;;;;;;;5.10;1.10;;;;;;;26.23;34.53;99690.41;237223;1195;139361;-59
2022/08/10 16:06:59;;;;;;;5.40;1.30;;;;;;;26.18;34.36;99694.77;237150;1195;140209;-59
2022/08/10 16:12:14;;;;;;;2.50;1.20;;;;;;;26.14;34.37;99695.11;236904;1196;139433;-58
2022/08/10 16:17:21;;;;;;;4.00;1.40;;;;;;;26.10;34.43;99697.14;237214;1196;139414;-59
2022/08/10 16:22:30;;;;;;;5.10;1.20;;;;;;;26.02;34.71;99701.16;237204;1195;140251;-59
2022/08/10 16:27:41;;;;;;;5.00;1.20;;;;;;;25.94;34.89;99704.83;237051;1195;139141;-59
2022/08/10 16:32:48;;;;;;;4.40;1.20;;;;;;;25.92;35.09;99703.61;236906;1196;141497;-59
2022/08/10 16:37:57;;;;;;;5.30;1.80;;;;;;;25.91;35.13;99707.20;237190;1196;140048;-60
2022/08/10 16:43:06;;;;;;;5.60;2.80;;;;;;;25.85;35.16;99707.40;237120;1196;139452;-58
2022/08/10 16:48:09;;;;;;;3.70;1.20;;;;;;;25.80;35.33;99707.16;237184;1195;140156;-59
2022/08/10 16:53:18;;;;;;;3.50;1.10;;;;;;;25.76;35.32;99706.55;237156;1195;140724;-58
2022/08/10 16:58:28;;;;;;;2.70;1.30;;;;;;;25.67;35.42;99707.52;237064;1195;140255;-58
2022/08/10 17:03:39;;;;;;;3.00;1.40;;;;;;;25.56;35.30;99710.30;237217;1196;139582;-59
2022/08/10 17:09:06;;;;;;;5.30;1.20;;;;;;;25.46;35.42;99710.88;236930;1195;139691;-59
2022/08/10 17:14:10;;;;;;;6.40;1.40;;;;;;;25.38;35.67;99720.70;237110;1195;139397;-58
2022/08/10 17:19:17;;;;;;;5.40;1.10;;;;;;;25.29;35.57;99722.13;237335;1195;140184;-57
2022/08/10 17:24:25;;;;;;;2.90;1.40;;;;;;;25.22;35.63;99723.23;237259;1196;138794;-58
2022/08/10 17:29:31;;;;;;;3.50;1.40;;;;;;;25.11;35.49;99723.33;237330;1195;139462;-59
2022/08/10 17:34:56;;;;;;;;;;;;;;;25.05;35.81;99725.90;237327;1195;140281;-59
2022/08/10 17:40:07;;;;;;;4.90;1.50;;;;;;;24.98;35.78;99723.72;237434;1195;126237;-58
2022/08/10 17:45:24;;;;;;;3.70;1.50;;;;;;;24.93;35.86;99720.29;237091;1195;139558;-59
2022/08/10 17:50:50;;;;;;;2.40;1.40;;;;;;;24.90;35.93;99720.23;236966;1195;139973;-59
2022/08/10 17:55:56;;;;;;;2.70;1.40;;;;;;;24.88;36.11;99719.77;237536;1195;139212;-58
2022/08/10 18:01:01;;;;;;;2.40;1.30;;;;;;;24.84;36.15;99730.20;237393;1195;139798;-58
2022/08/10 18:06:26;;;;;;;;;;;;;;;24.77;36.26;99728.92;237023;1196;141038;-58
2022/08/10 18:11:33;;;;;;;2.80;1.40;;;;;;;24.72;36.35;99732.53;237186;1195;125904;-58
2022/08/10 18:16:38;;;;;;;4.90;1.40;;;;;;;24.64;36.23;99736.90;236791;1196;140763;-57
2022/08/10 18:21:46;;;;;;;2.80;1.40;;;;;;;24.57;36.38;99741.46;237033;1195;139817;-57
2022/08/10 18:26:52;;;;;;;4.70;1.40;;;;;;;24.49;36.57;99744.76;237499;1195;138846;-58
2022/08/10 18:31:59;;;;;;;3.20;1.40;;;;;;;24.41;36.68;99747.63;237087;1196;140063;-58
2022/08/10 18:37:06;;;;;;;14.10;12.60;;;;;;;24.29;36.85;99752.70;237564;1195;139050;-58
2022/08/10 18:42:17;;;;;;;2.90;1.80;;;;;;;24.19;36.98;99757.58;237437;1195;140586;-56
2022/08/10 18:47:31;;;;;;;3.30;1.80;;;;;;;24.12;37.00;99758.20;237204;1195;139791;-58
2022/08/10 18:52:37;;;;;;;6.00;2.30;;;;;;;24.04;37.10;99764.59;237229;1195;138939;-57
2022/08/10 18:57:52;;;;;;;4.70;3.10;;;;;;;23.99;37.23;99768.61;237038;1196;139532;-57
2022/08/10 19:03:29;;;;;;;;;;;;;;;23.91;37.50;99771.23;237077;1196;139908;-57
2022/08/10 19:08:44;;;;;;;6.10;2.40;;;;;;;23.82;37.55;99774.17;236947;1196;126304;-58
2022/08/10 19:14:27;;;;;;;5.00;2.70;;;;;;;23.71;37.66;99777.00;237413;1195;139529;-56
2022/08/10 19:19:45;;;;;;;6.50;2.30;;;;;;;23.60;37.86;99777.27;237500;1195;139545;-58
2022/08/10 19:25:13;;;;;;;29.90;24.70;;;;;;;23.50;38.15;99779.67;237350;1195;139321;-58
2022/08/10 19:30:18;;;;;;;31.90;27.10;;;;;;;23.53;38.71;99787.74;237199;1196;140308;-57
2022/08/10 19:35:30;;;;;;;8.40;2.30;;;;;;;23.52;38.64;99787.61;236873;1195;141438;-55
2022/08/10 19:40:36;;;;;;;8.30;2.20;;;;;;;23.44;38.64;99782.91;237339;1195;140020;-55
2022/08/10 19:46:14;;;;;;;3.80;2.20;;;;;;;23.32;38.69;99783.86;237335;1195;139671;-57
2022/08/10 19:51:32;;;;;;;6.50;2.10;;;;;;;23.20;38.83;99779.63;237057;1196;141432;-58
2022/08/10 19:56:56;;;;;;;5.20;1.80;;;;;;;23.04;39.07;99774.55;237271;1195;140343;-56
2022/08/10 20:01:59;;;;;;;7.20;2.30;;;;;;;22.91;39.34;99776.52;237482;1195;140514;-57
2022/08/10 20:07:17;;;;;;;4.80;2.00;;;;;;;22.87;39.48;99779.29;237249;1195;139526;-55
2022/08/10 20:12:56;;;;;;;5.00;2.20;;;;;;;22.82;39.75;99776.23;237315;1195;162374;-57
2022/08/10 20:18:16;;;;;;;5.50;2.10;;;;;;;22.73;39.87;99781.44;237526;1195;142396;-56
2022/08/10 20:23:34;;;;;;;3.60;2.00;;;;;;;22.65;40.13;99785.11;237414;1195;139903;-57
2022/08/10 20:28:42;;;;;;;5.90;1.90;;;;;;;22.56;40.26;99779.13;237087;1196;139315;-58
2022/08/10 20:34:18;;;;;;;3.20;2.40;;;;;;;22.47;40.48;99772.83;237222;1195;139681;-58
2022/08/10 20:39:45;;;;;;;4.50;1.90;;;;;;;22.37;40.68;99775.20;237042;1195;141454;-57
2022/08/10 20:45:10;;;;;;;6.00;2.20;;;;;;;22.25;40.95;99776.48;237046;1195;140392;-56
2022/08/10 20:50:35;;;;;;;3.80;2.00;;;;;;;22.18;41.24;99777.11;237039;1196;139846;-57
2022/08/10 20:56:07;;;;;;;2.90;1.80;;;;;;;22.15;41.40;99778.20;237041;1195;140537;-58
2022/08/10 21:01:21;;;;;;;8.90;2.10;;;;;;;22.10;41.59;99775.52;236956;1195;140146;-57
2022/08/10 21:07:00;;;;;;;3.60;2.30;;;;;;;22.06;41.76;99775.21;237286;1195;139438;-57
2022/08/10 21:12:35;;;;;;;5.50;2.10;;;;;;;22.01;41.86;99774.10;237242;1195;139532;-56
2022/08/10 21:18:02;;;;;;;4.50;1.90;;;;;;;21.92;42.01;99778.25;237491;1195;140880;-57
2022/08/10 21:23:07;;;;;;;6.20;2.20;;;;;;;21.81;42.23;99776.39;237525;1195;140117;-58
2022/08/10 22:51:19;;;;;;;6.20;2.70;;;;;;;21.22;44.54;99747.77;237383;1195;139568;-58
2022/08/10 23:01:52;;;;;;;7.30;2.80;;;;;;;21.11;44.76;99738.67;237387;1195;139895;-57
2022/08/10 23:07:22;;;;;;;5.00;2.10;;;;;;;21.05;44.86;99734.21;237319;1195;138871;-60
2022/08/10 23:12:46;;;;;;;4.90;2.10;;;;;;;21.01;45.02;99739.09;237323;1196;139088;-62
2022/08/10 23:23:23;;;;;;;4.30;2.30;;;;;;;20.97;45.19;99745.05;237472;1195;139130;-60
2022/08/10 23:28:32;;;;;;;3.40;2.10;;;;;;;20.94;45.28;99746.77;237488;1195;138946;-57
2022/08/10 23:33:58;;;;;;;5.00;2.30;;;;;;;20.86;45.34;99739.40;237395;1196;139793;-58
2022/08/10 23:39:06;;;;;;;5.60;2.30;;;;;;;20.73;45.54;99740.09;237274;1196;140513;-57
2022/08/10 23:44:34;;;;;;;4.00;2.50;;;;;;;20.59;45.69;99739.77;237569;1195;140611;-59
2022/08/10 23:49:38;;;;;;;3.10;2.20;;;;;;;20.46;45.91;99743.11;237679;1195;138774;-59
2022/08/10 23:54:46;;;;;;;7.70;2.20;;;;;;;20.36;46.16;99734.65;237264;1196;139023;-58
